Time;durP1;ratioP1;P1;durP2;ratioP2;P2;SDS_P1;SDS_P2;PMS_P1;PMS_P2;Temp;Humidity;BMP_temperature;BMP_pressure;BME280_temperature;BME280_humidity;BME280_pressure;Samples;Min_cycle;Max_cycle;Signal;HPM_P1;HPM_P2
2021/05/15 00:01:03;;;;;;;7.99;5.17;;;;;;;16.98;54.24;98403.97;359682;109;1961941;-72
2021/05/15 00:02:08;;;;;;;10.71;5.71;;;;;;;16.96;54.31;98401.50;362390;109;1962059;-73
2021/05/15 00:03:13;;;;;;;10.72;5.56;;;;;;;16.96;54.32;98403.42;363413;109;1963943;-73
2021/05/15 00:04:18;;;;;;;11.23;5.22;;;;;;;16.96;54.31;98403.42;362777;110;1969960;-73
2021/05/15 00:05:24;;;;;;;11.13;6.08;;;;;;;16.94;54.47;98390.08;361203;109;1962988;-72
2021/05/15 00:06:29;;;;;;;9.88;5.62;;;;;;;16.92;54.56;98401.25;311761;109;2853908;-72
2021/05/15 00:07:35;;;;;;;13.03;5.24;;;;;;;16.92;54.59;98397.72;295745;109;2236945;-73
2021/05/15 00:08:39;;;;;;;9.98;5.07;;;;;;;16.92;54.61;98400.45;314584;109;2039016;-72
2021/05/15 00:09:44;;;;;;;9.22;5.28;;;;;;;16.91;54.68;98396.91;306374;110;2131977;-72
2021/05/15 00:10:51;;;;;;;9.15;5.03;;;;;;;16.90;54.78;98408.89;359016;109;1961990;-73
2021/05/15 00:11:56;;;;;;;11.35;5.67;;;;;;;16.91;54.83;98401.55;361704;109;1962033;-73
2021/05/15 00:13:01;;;;;;;10.00;5.72;;;;;;;16.92;54.85;98398.53;359852;110;1961921;-73
2021/05/15 00:14:05;;;;;;;12.89;5.48;;;;;;;16.91;54.92;98399.63;362148;109;1961974;-72
2021/05/15 00:15:11;;;;;;;9.08;5.81;;;;;;;16.95;54.87;98402.61;339602;109;1968981;-73
2021/05/15 00:16:19;;;;;;;9.84;5.41;;;;;;;16.95;54.92;98396.34;359977;109;1961973;-73
2021/05/15 00:17:24;;;;;;;9.71;5.27;;;;;;;16.95;54.88;98399.88;361672;109;1961960;-73
2021/05/15 00:18:29;;;;;;;9.87;5.94;;;;;;;16.91;55.03;98401.55;362203;109;1961952;-73
2021/05/15 00:19:35;;;;;;;11.32;5.67;;;;;;;16.91;55.06;98407.00;361153;109;1961981;-72
2021/05/15 00:20:40;;;;;;;9.03;6.04;;;;;;;16.91;55.15;98407.00;328633;109;2636978;-73
2021/05/15 00:21:47;;;;;;;9.75;5.66;;;;;;;16.91;55.28;98405.09;331596;109;2520934;-72
2021/05/15 00:22:52;;;;;;;10.10;5.83;;;;;;;16.91;55.19;98402.36;360963;109;1962001;-74
2021/05/15 00:23:56;;;;;;;9.88;6.33;;;;;;;16.92;55.44;98398.53;361300;110;1961926;-73
2021/05/15 00:25:01;;;;;;;8.49;5.39;;;;;;;16.91;55.28;98399.63;352811;109;1963837;-72
2021/05/15 00:26:06;;;;;;;10.24;5.63;;;;;;;16.89;55.39;98410.00;321667;109;1986986;-72
2021/05/15 00:27:11;;;;;;;10.86;6.32;;;;;;;16.89;55.47;98403.73;296571;109;2217972;-71
2021/05/15 00:28:16;;;;;;;9.64;5.75;;;;;;;16.87;55.59;98403.19;336396;110;2440934;-73
2021/05/15 00:29:21;;;;;;;11.59;6.28;;;;;;;16.87;55.58;98408.64;329193;109;2528961;-73
2021/05/15 00:30:27;;;;;;;10.97;6.16;;;;;;;16.84;55.67;98399.11;342469;109;2324957;-72
2021/05/15 00:31:31;;;;;;;12.28;7.46;;;;;;;16.83;56.43;98405.66;315476;109;2039015;-72
2021/05/15 00:32:36;;;;;;;9.35;5.79;;;;;;;16.80;55.79;98403.47;306006;110;2126765;-73
2021/05/15 00:33:41;;;;;;;10.22;6.08;;;;;;;16.78;55.84;98402.95;338824;110;2311343;-72
2021/05/15 00:34:47;;;;;;;10.31;5.72;;;;;;;16.76;55.95;98399.65;338172;109;2395018;-73
2021/05/15 00:35:52;;;;;;;9.71;6.20;;;;;;;16.75;55.99;98403.48;327900;110;2517945;-73
2021/05/15 00:36:57;;;;;;;11.68;6.05;;;;;;;16.74;56.02;98409.20;328514;110;1961992;-72
2021/05/15 00:38:02;;;;;;;10.03;6.54;;;;;;;16.71;56.26;98405.11;317397;109;2013906;-72
2021/05/15 00:39:08;;;;;;;9.39;5.32;;;;;;;16.69;56.54;98404.56;291562;110;2263769;-72
2021/05/15 00:40:14;;;;;;;11.92;5.91;;;;;;;16.65;56.51;98409.77;349221;110;1963759;-72
2021/05/15 00:41:18;;;;;;;11.83;5.95;;;;;;;16.60;56.61;98408.97;361667;109;1962017;-73
2021/05/15 00:42:23;;;;;;;11.07;6.39;;;;;;;16.56;56.69;98411.41;361251;109;1961950;-73
2021/05/15 00:43:29;;;;;;;10.74;5.97;;;;;;;16.53;56.76;98411.15;367142;110;1962006;-72
2021/05/15 00:44:54;;;;;;;10.42;6.15;;;;;;;16.49;56.78;98411.70;363532;110;1960967;-72
2021/05/15 00:46:05;;;;;;;11.21;5.54;;;;;;;16.45;56.90;98410.61;333743;109;2496876;-72
2021/05/15 00:47:15;;;;;;;11.91;6.71;;;;;;;16.39;57.05;98408.99;366272;109;1960844;-72
2021/05/15 00:48:21;;;;;;;11.19;6.94;;;;;;;16.35;57.25;98415.26;366208;109;1963927;-72
2021/05/15 00:49:25;;;;;;;10.02;6.27;;;;;;;16.28;57.42;98412.83;364305;109;1962006;-72
2021/05/15 00:50:31;;;;;;;10.78;6.60;;;;;;;16.23;57.55;98404.66;364524;109;1961922;-73
2021/05/15 00:51:37;;;;;;;13.23;7.31;;;;;;;16.18;57.68;98410.92;365001;109;1961915;-75
2021/05/15 00:52:43;;;;;;;10.69;6.86;;;;;;;16.14;57.97;98406.28;346860;109;2887955;-72
2021/05/15 00:53:48;;;;;;;11.94;7.10;;;;;;;16.08;58.13;98407.37;322881;110;1988952;-72
2021/05/15 00:54:54;;;;;;;11.78;5.96;;;;;;;16.02;58.26;98404.66;315510;109;2057906;-72
2021/05/15 00:56:00;;;;;;;11.98;6.71;;;;;;;15.99;58.38;98407.11;345333;109;1963954;-71
2021/05/15 00:57:07;;;;;;;11.33;6.02;;;;;;;15.95;58.55;98411.45;363789;109;1963878;-70
2021/05/15 00:58:13;;;;;;;10.34;6.18;;;;;;;15.90;58.68;98401.37;364770;109;1964956;-72
2021/05/15 00:59:18;;;;;;;10.17;6.77;;;;;;;15.89;58.89;98402.47;321000;109;2739016;-72
2021/05/15 01:00:25;;;;;;;11.55;6.36;;;;;;;15.85;59.07;98398.67;342278;109;2333024;-72
2021/05/15 01:01:31;;;;;;;10.06;6.25;;;;;;;15.82;59.28;98400.03;363889;109;1962041;-71
2021/05/15 01:02:36;;;;;;;9.64;5.56;;;;;;;15.78;59.39;98398.12;364278;109;1962035;-71
2021/05/15 01:03:41;;;;;;;11.59;6.86;;;;;;;15.76;59.50;98394.84;364234;109;1963005;-71
2021/05/15 01:04:45;;;;;;;9.16;5.78;;;;;;;15.72;59.63;98405.46;363542;109;1961968;-72
2021/05/15 01:05:51;;;;;;;9.74;6.13;;;;;;;15.69;59.70;98403.28;364275;109;1970096;-72
2021/05/15 01:06:56;;;;;;;11.28;6.79;;;;;;;15.68;59.84;98414.40;364418;109;1969919;-72
2021/05/15 01:08:01;;;;;;;12.26;6.71;;;;;;;15.66;60.24;98414.66;364305;109;1961952;-72
2021/05/15 01:09:06;;;;;;;10.82;5.88;;;;;;;15.67;60.26;98410.06;358155;111;1961932;-71
2021/05/15 01:10:12;;;;;;;9.21;5.99;;;;;;;15.64;60.75;98416.86;364795;110;1968948;-73
2021/05/15 01:11:19;;;;;;;11.90;6.17;;;;;;;15.61;60.46;98403.76;364542;110;1961943;-72
2021/05/15 01:12:24;;;;;;;10.88;6.04;;;;;;;15.59;60.47;98409.48;334530;109;2477017;-72
2021/05/15 01:13:33;;;;;;;10.80;5.60;;;;;;;15.55;60.55;98405.66;320892;109;1982019;-72
2021/05/15 01:14:39;;;;;;;11.37;6.51;;;;;;;15.52;60.69;98400.76;364836;109;1960820;-71
2021/05/15 01:15:44;;;;;;;9.72;5.90;;;;;;;15.49;60.84;98412.19;320866;111;2714028;-72
2021/05/15 01:16:49;;;;;;;10.16;5.99;;;;;;;15.50;60.84;98407.55;335183;109;1963980;-72
2021/05/15 01:17:56;;;;;;;10.20;6.07;;;;;;;15.47;61.03;98410.82;335495;109;1961960;-72
2021/05/15 01:19:02;;;;;;;10.48;6.24;;;;;;;15.46;61.04;98410.00;364586;109;1963019;-72
2021/05/15 01:20:07;;;;;;;9.43;6.06;;;;;;;15.44;61.12;98416.80;361809;109;1961918;-72
2021/05/15 01:21:12;;;;;;;10.58;6.09;;;;;;;15.41;61.13;98412.72;363855;109;1962038;-72
2021/05/15 01:22:17;;;;;;;11.91;6.24;;;;;;;15.38;61.21;98411.34;358068;112;1961977;-72
2021/05/15 01:23:22;;;;;;;9.81;6.03;;;;;;;15.35;61.48;98409.16;364923;109;1960828;-72
2021/05/15 01:24:26;;;;;;;11.00;5.77;;;;;;;15.35;61.62;98419.23;366291;109;1960690;-73
2021/05/15 01:25:31;;;;;;;9.75;5.33;;;;;;;15.33;61.81;98416.77;357389;108;1967715;-71
2021/05/15 01:26:38;;;;;;;9.67;5.98;;;;;;;15.33;61.75;98410.52;364929;109;1960708;-71
2021/05/15 01:27:44;;;;;;;10.48;5.63;;;;;;;15.34;61.85;98415.67;363797;109;1961917;-72
2021/05/15 01:28:54;;;;;;;11.25;6.63;;;;;;;15.34;62.10;98417.58;364554;109;1961997;-71
2021/05/15 01:29:58;;;;;;;10.66;6.67;;;;;;;15.35;62.06;98414.61;363429;109;1961964;-71
2021/05/15 01:31:03;;;;;;;10.18;5.91;;;;;;;15.36;61.96;98421.67;357772;112;1961937;-72
2021/05/15 01:32:09;;;;;;;9.94;6.41;;;;;;;15.36;62.25;98426.30;364461;109;1961918;-73
2021/05/15 01:33:14;;;;;;;11.45;5.89;;;;;;;15.34;62.17;98431.19;362027;111;1961935;-71
2021/05/15 01:34:20;;;;;;;10.02;5.88;;;;;;;15.32;62.22;98423.31;333942;109;2504909;-71
2021/05/15 01:35:24;;;;;;;11.21;6.46;;;;;;;15.33;62.13;98421.40;341380;109;2344035;-71
2021/05/15 01:36:40;;;;;;;12.47;6.47;;;;;;;15.32;62.36;98425.19;360972;109;1962906;-71
2021/05/15 01:37:38;;;;;;;9.68;6.18;;;;;;;15.35;62.20;98422.77;362833;109;1964336;-72
2021/05/15 01:38:44;;;;;;;11.24;5.84;;;;;;;15.36;62.40;98426.30;361662;111;1964935;-72
2021/05/15 01:39:49;;;;;;;10.27;6.67;;;;;;;15.36;62.32;98423.58;364771;111;1961974;-71
2021/05/15 01:40:54;;;;;;;11.58;7.04;;;;;;;15.35;62.29;98421.95;355080;111;1962985;-71
2021/05/15 01:41:58;;;;;;;10.09;6.20;;;;;;;15.36;62.26;98418.14;356913;111;1961042;-72
2021/05/15 01:43:04;;;;;;;9.25;6.18;;;;;;;15.36;62.20;98424.39;356850;111;1962044;-72
2021/05/15 01:44:09;;;;;;;10.43;5.94;;;;;;;15.36;62.25;98421.67;348740;113;1964005;-73
2021/05/15 01:45:14;;;;;;;9.81;5.82;;;;;;;15.37;62.41;98423.33;363351;109;1963989;-72
2021/05/15 01:46:20;;;;;;;10.17;6.09;;;;;;;15.37;62.39;98420.61;329274;109;2504004;-71
2021/05/15 01:47:26;;;;;;;14.14;6.21;;;;;;;15.38;62.46;98418.70;298442;109;2196998;-72
2021/05/15 01:48:31;;;;;;;11.37;6.61;;;;;;;15.38;62.61;98424.14;351956;109;1961934;-73
2021/05/15 01:49:36;;;;;;;9.72;6.31;;;;;;;15.38;62.55;98418.70;364276;109;1961979;-72
2021/05/15 01:50:45;;;;;;;9.64;6.19;;;;;;;15.40;62.47;98416.53;363530;109;1961956;-71
2021/05/15 01:51:50;;;;;;;10.50;5.91;;;;;;;15.42;62.56;98408.89;347787;111;2959024;-72
2021/05/15 01:52:55;;;;;;;9.92;6.25;;;;;;;15.43;62.63;98409.70;333133;111;2361007;-72
2021/05/15 01:54:00;;;;;;;11.82;5.54;;;;;;;15.44;62.62;98417.61;332466;111;2390051;-71
2021/05/15 01:55:18;;;;;;;9.86;6.16;;;;;;;15.44;62.56;98414.08;334719;109;2451025;-72
2021/05/15 01:56:28;;;;;;;11.33;5.91;;;;;;;15.44;62.52;98416.80;364249;109;1962006;-72
2021/05/15 01:57:33;;;;;;;9.53;5.59;;;;;;;15.45;62.55;98413.80;363805;109;1962036;-72
2021/05/15 01:58:39;;;;;;;9.33;5.84;;;;;;;15.45;62.62;98412.98;363916;109;1961994;-71
2021/05/15 01:59:44;;;;;;;8.87;5.61;;;;;;;15.47;62.61;98416.27;363446;109;1965045;-73
2021/05/15 02:00:49;;;;;;;9.61;5.46;;;;;;;15.47;62.63;98414.35;364062;109;1963935;-72
2021/05/15 02:01:55;;;;;;;10.08;5.75;;;;;;;15.48;62.63;98415.16;329046;109;2893042;-73
2021/05/15 02:03:00;;;;;;;12.66;6.42;;;;;;;15.46;62.68;98415.45;332643;109;2504985;-71
2021/05/15 02:04:05;;;;;;;11.83;5.71;;;;;;;15.47;62.77;98422.52;336742;109;2384999;-72
2021/05/15 02:05:11;;;;;;;9.08;5.38;;;;;;;15.47;62.77;98427.15;338183;109;2409955;-71
2021/05/15 02:06:17;;;;;;;9.38;5.77;;;;;;;15.46;62.86;98426.33;333539;111;1962952;-72
2021/05/15 02:07:21;;;;;;;9.62;5.91;;;;;;;15.43;62.89;98424.16;356150;111;1964999;-72
2021/05/15 02:08:26;;;;;;;8.74;5.58;;;;;;;15.42;62.91;98422.50;357204;111;1961995;-71
2021/05/15 02:09:30;;;;;;;8.84;4.84;;;;;;;15.41;62.89;98423.59;345687;109;1970031;-71
2021/05/15 02:10:36;;;;;;;7.98;4.87;;;;;;;15.41;62.93;98423.59;341642;109;1960978;-73
2021/05/15 02:11:40;;;;;;;8.97;5.61;;;;;;;15.41;62.93;98426.31;339784;111;1962041;-71
2021/05/15 02:12:45;;;;;;;11.02;5.61;;;;;;;15.41;63.02;98420.06;332070;109;1962002;-71
2021/05/15 02:13:51;;;;;;;8.60;4.71;;;;;;;15.38;63.10;98429.58;342931;111;2319938;-72
2021/05/15 02:14:55;;;;;;;9.84;5.51;;;;;;;15.37;63.12;98425.20;308056;109;2106886;-72
2021/05/15 02:16:01;;;;;;;9.32;5.92;;;;;;;15.35;63.20;98425.49;306392;110;2129030;-72
2021/05/15 02:17:06;;;;;;;10.06;5.67;;;;;;;15.35;63.20;98428.21;347110;110;1960890;-71
2021/05/15 02:18:12;;;;;;;10.94;6.63;;;;;;;15.33;63.23;98421.40;343240;109;1962022;-72
2021/05/15 02:19:17;;;;;;;8.97;5.31;;;;;;;15.32;63.30;98426.03;363968;109;1968945;-72
2021/05/15 02:20:23;;;;;;;8.76;4.94;;;;;;;15.29;63.39;98423.00;362787;109;1961986;-71
2021/05/15 02:21:27;;;;;;;8.97;5.09;;;;;;;15.30;63.49;98432.82;363287;109;1961013;-72
2021/05/15 02:22:32;;;;;;;10.21;4.96;;;;;;;15.32;63.46;98425.19;365075;109;1961859;-70
2021/05/15 02:23:38;;;;;;;8.36;5.08;;;;;;;15.37;63.37;98428.77;356528;111;1960868;-71
2021/05/15 02:24:42;;;;;;;9.21;5.09;;;;;;;15.31;63.49;98432.54;364489;109;1969039;-71
2021/05/15 02:25:48;;;;;;;8.36;5.25;;;;;;;15.31;63.57;98432.54;364876;109;1962008;-71
2021/05/15 02:26:53;;;;;;;9.46;5.93;;;;;;;15.26;63.68;98427.08;364354;109;1969946;-72
2021/05/15 02:27:57;;;;;;;7.98;4.98;;;;;;;15.26;63.79;98431.70;364530;109;1961997;-72
2021/05/15 02:29:02;;;;;;;8.83;4.92;;;;;;;15.27;63.68;98427.89;364968;109;1963963;-71
2021/05/15 02:30:08;;;;;;;8.89;5.32;;;;;;;15.25;63.90;98432.80;364260;109;1968849;-73
2021/05/15 02:31:13;;;;;;;9.14;5.03;;;;;;;15.27;63.80;98436.05;364083;109;1964026;-71
2021/05/15 02:32:18;;;;;;;12.11;5.77;;;;;;;15.28;63.76;98430.36;364640;109;1962055;-72
2021/05/15 02:33:22;;;;;;;9.29;5.22;;;;;;;15.31;63.71;98437.98;363328;109;1962025;-71
2021/05/15 02:34:27;;;;;;;7.79;5.48;;;;;;;15.32;63.64;98436.91;364800;109;1969989;-71
2021/05/15 02:35:32;;;;;;;7.56;4.52;;;;;;;15.31;63.69;98440.70;363872;109;1961907;-71
2021/05/15 02:36:37;;;;;;;9.43;5.68;;;;;;;15.33;63.75;98441.26;364844;109;1968909;-71
2021/05/15 02:37:43;;;;;;;8.31;4.98;;;;;;;15.37;63.59;98444.25;364544;109;1961979;-71
2021/05/15 02:38:49;;;;;;;8.83;5.43;;;;;;;15.48;63.23;98445.94;364613;109;1969982;-71
2021/05/15 02:39:54;;;;;;;10.38;5.67;;;;;;;15.43;63.29;98443.20;364093;109;1962974;-72
2021/05/15 02:40:58;;;;;;;9.42;5.52;;;;;;;15.42;63.33;98444.27;364069;109;1963972;-72
2021/05/15 02:42:04;;;;;;;10.08;5.93;;;;;;;15.40;63.48;98449.19;363449;109;1961909;-72
2021/05/15 02:43:09;;;;;;;8.82;5.21;;;;;;;15.45;63.43;98448.36;362860;109;1961926;-70
2021/05/15 02:44:14;;;;;;;8.64;5.22;;;;;;;15.47;63.24;98452.45;363316;109;1963987;-72
2021/05/15 02:45:21;;;;;;;9.75;5.32;;;;;;;15.48;63.20;98450.55;364083;109;1961985;-71
2021/05/15 02:46:27;;;;;;;9.39;4.86;;;;;;;15.49;63.30;98447.56;362544;109;1969881;-71
2021/05/15 02:47:32;;;;;;;8.63;4.98;;;;;;;15.50;63.19;98453.82;363702;109;1963023;-70
2021/05/15 02:48:37;;;;;;;7.71;4.84;;;;;;;15.43;63.37;98453.24;363981;109;1961940;-72
2021/05/15 02:49:42;;;;;;;9.88;4.70;;;;;;;15.45;63.36;98461.97;364773;109;1962032;-70
2021/05/15 02:50:50;;;;;;;9.37;5.35;;;;;;;15.44;63.34;98461.16;357333;111;1961985;-73
2021/05/15 02:51:55;;;;;;;10.58;4.88;;;;;;;15.43;63.32;98459.53;356771;111;1961944;-73
2021/05/15 02:53:00;;;;;;;7.94;4.91;;;;;;;15.43;63.42;98464.13;364487;109;1963028;-71
2021/05/15 02:54:15;;;;;;;11.08;5.30;;;;;;;15.41;63.43;98464.41;364171;109;1964911;-73
2021/05/15 02:55:23;;;;;;;8.39;4.89;;;;;;;15.39;63.40;98463.86;351347;114;1962888;-71
2021/05/15 02:56:28;;;;;;;10.74;5.35;;;;;;;15.38;63.51;98467.67;347393;116;1963001;-72
2021/05/15 02:57:45;;;;;;;8.98;5.04;;;;;;;15.39;63.55;98469.30;347405;116;1961998;-72
2021/05/15 02:58:49;;;;;;;10.07;5.69;;;;;;;15.37;63.56;98474.19;353011;114;1969048;-72
2021/05/15 02:59:54;;;;;;;10.31;5.05;;;;;;;15.36;63.65;98475.28;353626;112;1962873;-72
2021/05/15 03:00:59;;;;;;;11.59;5.69;;;;;;;15.35;63.64;98474.47;354688;114;1968953;-73
2021/05/15 03:02:04;;;;;;;10.92;5.38;;;;;;;15.34;63.58;98472.00;352465;114;1961984;-71
2021/05/15 03:03:09;;;;;;;11.41;5.15;;;;;;;15.33;63.77;98475.81;353482;114;1961972;-73
2021/05/15 03:04:14;;;;;;;8.79;5.68;;;;;;;15.32;63.68;98472.28;349765;115;1963474;-72
2021/05/15 03:05:22;;;;;;;9.99;5.46;;;;;;;15.31;64.07;98472.53;348945;115;1961940;-71
2021/05/15 03:06:27;;;;;;;8.78;4.77;;;;;;;15.30;63.86;98479.08;330710;114;1962028;-72
2021/05/15 03:07:32;;;;;;;9.36;5.23;;;;;;;15.30;63.86;98481.80;328867;114;1963978;-72
2021/05/15 03:08:37;;;;;;;9.51;5.28;;;;;;;15.29;63.86;98478.23;291563;114;2185674;-71
2021/05/15 03:09:44;;;;;;;7.91;5.08;;;;;;;15.29;63.94;98475.52;328317;111;2417982;-72
2021/05/15 03:10:49;;;;;;;9.71;5.08;;;;;;;15.31;63.91;98476.06;343953;115;1960801;-70
2021/05/15 03:11:54;;;;;;;8.04;4.72;;;;;;;15.31;63.84;98476.06;355318;111;1960835;-71
2021/05/15 03:12:58;;;;;;;9.34;5.08;;;;;;;15.34;63.88;98478.25;355420;111;1968645;-72
2021/05/15 03:14:03;;;;;;;7.14;4.09;;;;;;;15.37;63.83;98485.06;352187;114;1967805;-72
2021/05/15 03:15:11;;;;;;;9.01;5.23;;;;;;;15.39;63.81;98483.72;353328;113;1967771;-71
2021/05/15 03:16:16;;;;;;;9.16;4.80;;;;;;;15.43;63.67;98481.30;350221;113;1960806;-73
2021/05/15 03:17:21;;;;;;;9.35;4.51;;;;;;;15.48;63.60;98473.16;351550;112;1960869;-71
2021/05/15 03:18:26;;;;;;;8.83;5.25;;;;;;;15.49;63.56;98474.78;350070;113;1968772;-72
2021/05/15 03:19:31;;;;;;;8.93;5.49;;;;;;;15.55;63.41;98481.87;350712;113;1960765;-72
2021/05/15 03:20:37;;;;;;;11.99;5.71;;;;;;;15.60;63.30;98484.61;315584;113;2634865;-71
2021/05/15 03:21:42;;;;;;;12.83;5.14;;;;;;;15.64;63.19;98478.63;322157;115;2489827;-71
2021/05/15 03:22:48;;;;;;;10.63;4.69;;;;;;;15.69;63.08;98481.39;320151;111;2493857;-72
2021/05/15 03:23:52;;;;;;;9.89;5.69;;;;;;;15.71;62.99;98484.67;316618;112;1960702;-71
2021/05/15 03:24:57;;;;;;;9.75;4.51;;;;;;;15.73;62.94;98485.23;314245;113;1960834;-72
2021/05/15 03:26:02;;;;;;;14.89;5.32;;;;;;;15.75;62.88;98483.06;331889;113;2291858;-72
2021/05/15 03:27:07;;;;;;;10.99;5.59;;;;;;;15.76;62.87;98480.05;329286;115;2323956;-72
2021/05/15 03:28:12;;;;;;;8.31;4.95;;;;;;;15.78;62.75;98486.05;330116;115;2288982;-72
2021/05/15 03:29:18;;;;;;;7.66;5.31;;;;;;;15.78;62.79;98482.52;328524;115;2311746;-72
2021/05/15 03:30:29;;;;;;;7.98;5.10;;;;;;;15.78;62.79;98483.33;350015;115;1962140;-72
2021/05/15 03:31:34;;;;;;;10.82;5.64;;;;;;;15.79;62.81;98481.42;350824;113;1961999;-73
2021/05/15 03:32:42;;;;;;;11.62;5.99;;;;;;;15.81;62.73;98476.53;351249;115;1960824;-71
2021/05/15 03:33:47;;;;;;;9.01;5.59;;;;;;;15.82;62.75;98479.00;288128;113;2207937;-72
2021/05/15 03:34:52;;;;;;;10.72;5.22;;;;;;;15.83;62.74;98488.79;281674;115;2241977;-72
2021/05/15 03:35:57;;;;;;;9.37;4.98;;;;;;;15.88;62.61;98481.70;324058;115;2406947;-72
2021/05/15 03:37:03;;;;;;;10.39;4.86;;;;;;;15.93;62.50;98492.61;325442;113;2380990;-72
2021/05/15 03:38:09;;;;;;;10.06;5.28;;;;;;;15.98;62.36;98490.73;315394;115;1961942;-72
2021/05/15 03:39:18;;;;;;;8.00;4.64;;;;;;;16.03;62.24;98487.19;350864;115;1962048;-71
2021/05/15 03:40:20;;;;;;;9.76;5.47;;;;;;;16.07;62.11;98485.56;351488;114;1962006;-71
2021/05/15 03:41:25;;;;;;;9.28;5.04;;;;;;;16.11;62.00;98491.28;350345;115;1960909;-71
2021/05/15 03:42:30;;;;;;;9.92;5.19;;;;;;;16.13;61.95;98494.56;351765;113;1968810;-73
2021/05/15 03:43:35;;;;;;;9.59;4.84;;;;;;;16.15;61.86;98498.65;351441;113;1961893;-72
2021/05/15 03:44:40;;;;;;;8.76;4.89;;;;;;;16.17;61.77;98495.66;350975;113;1961971;-72
2021/05/15 03:45:44;;;;;;;10.78;5.25;;;;;;;16.19;61.70;98498.91;350071;113;1964016;-72
2021/05/15 03:46:49;;;;;;;8.26;5.28;;;;;;;16.20;61.62;98501.38;350462;113;1963981;-72
2021/05/15 03:47:53;;;;;;;9.42;5.28;;;;;;;16.20;61.60;98495.93;350525;115;1970040;-73
2021/05/15 03:48:58;;;;;;;11.34;5.42;;;;;;;16.21;61.51;98497.55;338484;115;1961950;-73
2021/05/15 03:50:04;;;;;;;9.39;5.18;;;;;;;16.23;61.49;98506.28;306903;113;2022988;-72
2021/05/15 03:51:08;;;;;;;9.01;4.98;;;;;;;16.25;61.46;98516.92;338652;115;1964001;-73
2021/05/15 03:52:13;;;;;;;8.86;4.76;;;;;;;16.25;61.40;98515.02;335895;115;1962022;-71
2021/05/15 03:53:19;;;;;;;9.75;4.61;;;;;;;16.26;61.48;98513.91;306177;113;2009021;-71
2021/05/15 03:54:24;;;;;;;10.54;5.05;;;;;;;16.26;61.50;98507.64;348142;115;1971037;-72
2021/05/15 03:55:29;;;;;;;8.52;4.83;;;;;;;16.25;61.50;98512.28;344535;113;1962000;-72
2021/05/15 03:56:34;;;;;;;10.07;4.61;;;;;;;16.27;61.54;98512.00;335091;115;1962036;-72
2021/05/15 03:57:38;;;;;;;12.07;6.03;;;;;;;16.28;61.47;98513.65;320899;113;1964033;-71
2021/05/15 03:58:44;;;;;;;10.81;5.40;;;;;;;16.31;61.37;98515.83;286388;115;2207982;-71
2021/05/15 03:59:48;;;;;;;10.08;4.96;;;;;;;16.32;61.29;98508.47;286579;116;2169990;-72
2021/05/15 04:00:53;;;;;;;10.88;5.39;;;;;;;16.32;61.26;98511.19;280955;117;2220807;-71
2021/05/15 04:01:59;;;;;;;8.61;4.68;;;;;;;16.30;61.27;98516.09;323480;114;2332049;-72
2021/05/15 04:03:04;;;;;;;9.44;4.46;;;;;;;16.27;61.34;98520.17;325871;113;2376965;-72
2021/05/15 04:04:09;;;;;;;9.36;4.66;;;;;;;16.23;61.42;98522.63;284551;116;2219964;-72
2021/05/15 04:05:14;;;;;;;9.68;4.09;;;;;;;16.21;61.41;98511.18;280107;116;2267929;-72
2021/05/15 04:06:19;;;;;;;9.38;4.87;;;;;;;16.22;61.40;98518.28;309476;116;1962022;-72
2021/05/15 04:07:24;;;;;;;8.46;4.30;;;;;;;16.20;61.56;98520.45;307912;115;2002976;-72
2021/05/15 04:08:29;;;;;;;8.88;4.46;;;;;;;16.19;61.60;98517.98;323975;115;2389079;-73
2021/05/15 04:09:34;;;;;;;11.16;5.29;;;;;;;16.20;61.54;98514.19;329817;113;2322978;-72
2021/05/15 04:10:40;;;;;;;7.96;4.78;;;;;;;16.21;61.60;98515.81;342249;118;1961960;-72
2021/05/15 04:11:45;;;;;;;8.64;4.82;;;;;;;16.19;61.62;98526.97;340311;119;1961971;-73
2021/05/15 04:12:59;;;;;;;7.59;4.45;;;;;;;16.19;61.61;98528.89;339611;119;1962004;-72
2021/05/15 04:14:00;;;;;;;7.64;4.25;;;;;;;16.19;61.62;98512.53;338672;117;1961973;-73
2021/05/15 04:15:09;;;;;;;7.90;4.77;;;;;;;16.18;61.67;98519.90;337939;117;1963067;-73
2021/05/15 04:16:19;;;;;;;7.97;4.80;;;;;;;16.20;61.65;98522.37;287784;119;2099922;-71
2021/05/15 04:17:28;;;;;;;9.12;4.76;;;;;;;16.20;61.64;98516.91;338822;119;1961994;-73
2021/05/15 04:18:30;;;;;;;7.91;4.62;;;;;;;16.19;61.69;98520.70;338143;117;1960780;-72
2021/05/15 04:19:35;;;;;;;8.43;4.39;;;;;;;16.16;61.88;98532.97;331665;118;1960717;-74
2021/05/15 04:20:42;;;;;;;9.13;4.77;;;;;;;16.18;61.73;98530.80;331552;120;1961979;-73
2021/05/15 04:21:49;;;;;;;7.35;4.28;;;;;;;16.21;61.82;98526.72;346246;114;1964076;-73
2021/05/15 04:22:54;;;;;;;8.33;4.68;;;;;;;16.21;61.79;98532.98;303607;114;2779993;-73
2021/05/15 04:23:59;;;;;;;7.70;4.28;;;;;;;16.23;61.71;98522.63;321009;118;2359071;-73
2021/05/15 04:25:05;;;;;;;7.74;4.46;;;;;;;16.27;61.67;98525.62;322069;116;2323982;-72
2021/05/15 04:26:13;;;;;;;6.12;3.43;;;;;;;16.29;61.54;98522.64;339597;115;1961907;-71
2021/05/15 04:27:19;;;;;;;6.79;3.86;;;;;;;16.32;61.53;98522.09;344878;116;1961911;-72
2021/05/15 04:28:25;;;;;;;6.69;4.17;;;;;;;16.35;61.49;98524.27;303958;115;2838795;-73
2021/05/15 04:29:30;;;;;;;7.74;3.94;;;;;;;16.38;61.38;98526.45;324298;116;2315915;-72
2021/05/15 04:30:36;;;;;;;7.32;3.50;;;;;;;16.42;61.30;98522.10;342339;118;1961952;-74
2021/05/15 04:31:40;;;;;;;7.31;3.62;;;;;;;16.43;61.11;98521.84;342172;116;1962926;-73
2021/05/15 04:32:45;;;;;;;6.54;3.83;;;;;;;16.46;61.17;98525.93;339331;116;1961947;-72
2021/05/15 04:33:50;;;;;;;7.98;3.76;;;;;;;16.47;61.05;98522.91;324394;116;1960956;-72
2021/05/15 04:34:55;;;;;;;6.02;3.48;;;;;;;16.48;61.05;98521.00;286325;116;2161859;-73
2021/05/15 04:36:00;;;;;;;6.81;3.82;;;;;;;16.48;61.17;98524.57;322310;116;2334850;-72
2021/05/15 04:37:05;;;;;;;7.91;3.68;;;;;;;16.51;61.03;98522.37;283873;116;2207023;-72
2021/05/15 04:38:10;;;;;;;5.22;3.02;;;;;;;16.50;61.01;98527.01;278908;116;2259885;-73
2021/05/15 04:39:16;;;;;;;7.80;3.68;;;;;;;16.51;60.96;98522.37;280614;116;2245019;-72
2021/05/15 04:40:21;;;;;;;4.95;2.88;;;;;;;16.51;60.97;98534.08;345412;117;1960709;-73
2021/05/15 04:41:26;;;;;;;6.20;3.49;;;;;;;16.53;60.87;98525.64;344704;117;1962013;-73
2021/05/15 04:42:30;;;;;;;6.00;3.44;;;;;;;16.54;60.89;98536.29;330238;114;1960936;-73
2021/05/15 04:43:35;;;;;;;6.30;3.68;;;;;;;16.53;60.87;98531.09;303798;116;2001986;-72
2021/05/15 04:44:40;;;;;;;6.57;3.62;;;;;;;16.54;60.85;98525.39;319350;116;2443966;-71
2021/05/15 04:45:45;;;;;;;6.75;3.56;;;;;;;16.57;60.86;98530.28;317427;114;2489047;-73
2021/05/15 04:46:51;;;;;;;9.39;3.11;;;;;;;16.60;60.85;98537.10;326863;115;2333950;-72
2021/05/15 04:47:56;;;;;;;6.28;3.31;;;;;;;16.75;60.36;98528.08;330818;115;1962019;-73
2021/05/15 04:49:14;;;;;;;6.34;3.05;;;;;;;16.79;60.17;98540.93;324136;116;1962032;-72
2021/05/15 04:50:30;;;;;;;7.03;4.04;;;;;;;16.72;60.40;98540.35;356758;112;1969909;-72
2021/05/15 04:51:36;;;;;;;7.73;4.36;;;;;;;16.73;60.47;98539.28;298365;116;2836001;-73
2021/05/15 04:52:41;;;;;;;8.56;4.01;;;;;;;16.75;60.40;98538.98;296065;116;2115044;-72
2021/05/15 04:53:46;;;;;;;7.07;3.56;;;;;;;16.77;60.36;98537.66;288249;115;2170039;-73
2021/05/15 04:54:51;;;;;;;6.09;3.53;;;;;;;16.77;60.23;98543.11;325267;114;2380224;-73
2021/05/15 04:55:56;;;;;;;7.11;3.86;;;;;;;16.77;60.16;98542.27;322138;114;2435060;-73
2021/05/15 04:57:01;;;;;;;5.81;3.43;;;;;;;16.78;60.25;98539.30;306176;119;2522016;-72
2021/05/15 04:58:06;;;;;;;8.88;4.33;;;;;;;16.78;60.18;98542.03;273124;119;2206973;-74
2021/05/15 04:59:11;;;;;;;6.21;3.43;;;;;;;16.82;60.09;98537.65;267100;119;2266805;-72
2021/05/15 05:00:17;;;;;;;7.32;3.75;;;;;;;16.84;60.09;98543.66;332725;115;1961973;-73
2021/05/15 05:01:22;;;;;;;7.35;3.46;;;;;;;16.86;59.94;98546.13;339896;115;1962953;-72